createdAt,value
2023-04-24T00:02:00.817Z,16.00
2023-04-24T00:04:28.166Z,16.00
2023-04-24T00:06:58.366Z,16.00
2023-04-24T00:09:25.697Z,16.00
2023-04-24T00:11:53.274Z,16.00
2023-04-24T00:14:20.534Z,16.00
2023-04-24T00:16:47.658Z,16.00
2023-04-24T00:19:14.819Z,16.00
2023-04-24T00:21:42.729Z,16.00
2023-04-24T00:24:10.266Z,15.90
2023-04-24T00:26:37.356Z,15.90
2023-04-24T00:29:04.447Z,15.80
2023-04-24T00:31:31.531Z,15.80
2023-04-24T00:33:59.142Z,15.80
2023-04-24T00:36:26.396Z,15.80
2023-04-24T00:38:54.145Z,15.70
2023-04-24T00:41:22.268Z,15.70
2023-04-24T00:43:49.532Z,15.70
2023-04-24T00:46:17.786Z,15.70
2023-04-24T00:48:45.098Z,15.60
2023-04-24T00:51:12.257Z,15.60
2023-04-24T00:53:39.366Z,15.60
2023-04-24T00:56:06.874Z,15.60
2023-04-24T00:58:34.058Z,15.50
2023-04-24T01:01:02.119Z,15.50
2023-04-24T01:03:38.209Z,15.50
2023-04-24T01:06:06.614Z,15.40
2023-04-24T01:08:34.843Z,15.40
2023-04-24T01:11:04.892Z,15.40
2023-04-24T01:13:33.169Z,15.40
2023-04-24T01:16:01.592Z,15.40
2023-04-24T01:18:29.297Z,15.40
2023-04-24T01:21:00.360Z,15.40
2023-04-24T01:23:28.034Z,15.30
2023-04-24T01:25:55.266Z,15.30
2023-04-24T01:28:22.730Z,15.30
2023-04-24T01:30:50.070Z,15.30
2023-04-24T01:33:17.562Z,15.30
2023-04-24T01:35:44.878Z,15.30
2023-04-24T01:38:12.034Z,15.30
2023-04-24T01:40:39.355Z,15.30
2023-04-24T01:43:06.740Z,15.30
2023-04-24T01:45:34.017Z,15.30
2023-04-24T01:48:01.997Z,15.30
2023-04-24T01:50:29.267Z,15.20
2023-04-24T01:52:56.500Z,15.20
2023-04-24T01:55:23.609Z,15.20
2023-04-24T01:57:51.299Z,15.20
2023-04-24T02:00:18.370Z,15.30
2023-04-24T02:02:48.029Z,15.20
2023-04-24T02:05:16.067Z,15.20
2023-04-24T02:07:43.251Z,15.20
2023-04-24T02:10:11.191Z,15.20
2023-04-24T02:12:38.282Z,15.20
2023-04-24T02:15:06.271Z,15.20
2023-04-24T02:17:33.372Z,15.10
2023-04-24T02:20:00.459Z,15.10
2023-04-24T02:22:27.522Z,15.20
2023-04-24T02:24:54.618Z,15.20
2023-04-24T02:27:21.714Z,15.20
2023-04-24T02:29:48.784Z,15.20
2023-04-24T02:32:16.817Z,15.20
2023-04-24T02:34:44.162Z,15.10
2023-04-24T02:37:11.301Z,15.10
2023-04-24T02:39:38.421Z,15.10
2023-04-24T02:42:05.605Z,15.00
2023-04-24T02:44:32.673Z,15.10
2023-04-24T02:46:59.764Z,15.00
2023-04-24T02:49:27.158Z,15.00
2023-04-24T02:51:54.191Z,15.00
2023-04-24T02:54:21.296Z,15.00
2023-04-24T02:56:48.353Z,15.00
2023-04-24T02:59:15.489Z,15.00
2023-04-24T03:01:42.688Z,15.00
2023-04-24T03:04:10.063Z,15.00
2023-04-24T03:06:37.247Z,15.00
2023-04-24T03:09:04.724Z,15.00
2023-04-24T03:11:31.803Z,15.00
2023-04-24T03:13:58.859Z,14.90
2023-04-24T03:16:26.455Z,15.00
2023-04-24T03:18:53.570Z,15.00
2023-04-24T03:21:20.815Z,15.00
2023-04-24T03:23:47.847Z,15.10
2023-04-24T03:26:15.003Z,15.10
2023-04-24T03:28:42.191Z,15.10
2023-04-24T03:31:09.407Z,15.10
2023-04-24T03:33:37.187Z,15.10
2023-04-24T03:36:06.074Z,15.10
2023-04-24T03:38:33.192Z,15.10
2023-04-24T03:41:00.388Z,15.10
2023-04-24T03:43:28.427Z,15.10
2023-04-24T03:45:55.648Z,15.10
2023-04-24T03:48:22.786Z,15.00
2023-04-24T03:50:49.849Z,15.00
2023-04-24T03:53:16.919Z,15.00
2023-04-24T03:55:44.145Z,15.00
2023-04-24T03:58:12.214Z,14.90
2023-04-24T04:00:41.373Z,14.90
2023-04-24T04:03:08.737Z,14.90
2023-04-24T04:05:36.002Z,14.80
2023-04-24T04:08:03.193Z,14.70
2023-04-24T04:10:30.292Z,14.70
2023-04-24T04:12:57.375Z,14.60
2023-04-24T04:15:24.492Z,14.50
2023-04-24T04:17:51.675Z,14.50
2023-04-24T04:20:18.855Z,14.50
2023-04-24T04:22:45.921Z,14.50
2023-04-24T04:25:14.679Z,14.50
2023-04-24T04:27:42.541Z,14.50
2023-04-24T04:30:10.888Z,14.50
2023-04-24T04:32:38.368Z,14.60
2023-04-24T04:35:06.171Z,14.60
2023-04-24T04:37:36.874Z,14.50
2023-04-24T04:40:07.909Z,14.60
2023-04-24T04:42:35.222Z,14.60
2023-04-24T04:45:03.199Z,14.70
2023-04-24T04:47:32.807Z,14.70
2023-04-24T04:49:59.925Z,14.70
2023-04-24T04:52:27.719Z,14.80
2023-04-24T04:54:54.826Z,14.90
2023-04-24T04:57:22.441Z,14.90
2023-04-24T04:59:49.562Z,15.00
2023-04-24T05:02:16.847Z,15.00
2023-04-24T05:04:44.292Z,15.10
2023-04-24T05:07:12.387Z,15.10
2023-04-24T05:09:39.452Z,15.20
2023-04-24T05:12:06.902Z,15.20
2023-04-24T05:14:33.991Z,15.30
2023-04-24T05:17:02.027Z,15.30
2023-04-24T05:19:29.254Z,15.40
2023-04-24T05:21:56.380Z,15.40
2023-04-24T05:24:23.456Z,15.50
2023-04-24T05:26:50.723Z,15.50
2023-04-24T05:29:20.175Z,15.50
2023-04-24T05:31:47.278Z,15.50
2023-04-24T05:34:15.216Z,15.50
2023-04-24T05:36:42.435Z,15.50
2023-04-24T05:39:09.795Z,15.50
2023-04-24T05:41:36.866Z,15.50
2023-04-24T05:44:03.949Z,15.60
2023-04-24T05:46:31.147Z,15.70
2023-04-24T05:48:58.396Z,15.80
2023-04-24T05:51:25.832Z,15.90
2023-04-24T05:53:53.199Z,16.00
2023-04-24T05:56:20.426Z,16.10
2023-04-24T05:58:47.943Z,16.20
2023-04-24T06:01:17.773Z,16.20
2023-04-24T06:03:44.988Z,16.20
2023-04-24T06:06:12.244Z,16.40
2023-04-24T06:08:39.342Z,16.50
2023-04-24T06:11:06.441Z,16.50
2023-04-24T06:13:33.532Z,16.70
2023-04-24T06:16:00.588Z,16.80
2023-04-24T06:18:27.661Z,17.00
2023-04-24T06:20:56.248Z,17.20
2023-04-24T06:23:23.387Z,17.40
2023-04-24T06:25:51.170Z,17.60
2023-04-24T06:28:18.633Z,17.60
2023-04-24T06:30:45.752Z,17.70
2023-04-24T06:33:20.354Z,17.90
2023-04-24T06:35:48.928Z,18.00
2023-04-24T06:38:17.108Z,18.00
2023-04-24T06:40:44.630Z,18.00
2023-04-24T06:43:12.257Z,18.00
2023-04-24T06:45:40.866Z,18.00
2023-04-24T06:48:08.257Z,18.00
2023-04-24T06:50:35.471Z,18.00
2023-04-24T06:53:02.549Z,17.90
2023-04-24T06:55:29.701Z,17.70
2023-04-24T06:57:56.805Z,17.70
2023-04-24T07:00:25.432Z,17.80
2023-04-24T07:02:52.774Z,17.90
2023-04-24T07:05:21.089Z,18.00
2023-04-24T07:07:48.856Z,18.20
2023-04-24T07:10:16.015Z,18.20
2023-04-24T07:12:43.136Z,18.00
2023-04-24T07:15:10.733Z,18.00
2023-04-24T07:17:39.516Z,18.10
2023-04-24T07:20:09.240Z,18.20
2023-04-24T07:22:36.292Z,18.30
2023-04-24T07:25:04.132Z,18.40
2023-04-24T07:27:31.209Z,18.50
2023-04-24T07:29:58.277Z,18.80
2023-04-24T07:32:25.397Z,18.90
2023-04-24T07:34:52.569Z,19.20
2023-04-24T07:37:20.025Z,19.30
2023-04-24T07:39:47.420Z,19.40
2023-04-24T07:42:14.508Z,19.50
2023-04-24T07:44:41.622Z,19.60
2023-04-24T07:47:09.263Z,19.70
2023-04-24T07:49:36.476Z,19.80
2023-04-24T07:52:03.674Z,19.80
2023-04-24T07:54:30.849Z,20.00
2023-04-24T07:56:57.939Z,19.80
2023-04-24T07:59:25.043Z,19.80
2023-04-24T08:01:52.176Z,19.80
2023-04-24T08:04:19.901Z,19.80
2023-04-24T08:06:49.042Z,20.00
2023-04-24T08:09:17.446Z,20.00
2023-04-24T08:11:45.012Z,20.00
2023-04-24T08:14:14.577Z,20.10
2023-04-24T08:16:42.165Z,20.10
2023-04-24T08:19:09.622Z,20.20
2023-04-24T08:21:36.695Z,20.20
2023-04-24T08:24:06.262Z,20.30
2023-04-24T08:26:33.343Z,20.40
2023-04-24T08:29:00.566Z,20.40
2023-04-24T08:31:28.073Z,20.50
2023-04-24T08:33:55.212Z,20.50
2023-04-24T08:36:26.507Z,20.40
2023-04-24T08:39:00.315Z,20.40
2023-04-24T08:41:28.286Z,20.40
2023-04-24T08:43:56.241Z,20.30
2023-04-24T08:46:23.930Z,20.30
2023-04-24T08:48:53.246Z,20.40
2023-04-24T08:51:21.417Z,20.40
2023-04-24T08:53:48.748Z,20.40
2023-04-24T08:56:17.171Z,20.30
2023-04-24T08:58:44.803Z,20.20
2023-04-24T09:01:12.591Z,20.20
2023-04-24T09:03:40.786Z,20.10
2023-04-24T09:06:10.462Z,19.80
2023-04-24T09:08:37.755Z,19.50
2023-04-24T09:11:05.721Z,19.20
2023-04-24T09:13:33.683Z,19.10
2023-04-24T09:16:01.606Z,18.80
2023-04-24T09:18:28.707Z,18.70
2023-04-24T09:21:13.981Z,18.50
2023-04-24T09:23:41.904Z,18.30
2023-04-24T09:26:10.975Z,18.30
2023-04-24T09:28:39.009Z,18.20
2023-04-24T09:31:09.309Z,18.00
2023-04-24T09:33:37.134Z,18.00
2023-04-24T09:36:04.635Z,18.00
2023-04-24T09:38:38.796Z,18.00
2023-04-24T09:41:08.710Z,18.00
2023-04-24T09:43:36.808Z,18.00
2023-04-24T09:46:09.725Z,18.10
2023-04-24T09:48:38.688Z,18.10
2023-04-24T09:51:12.386Z,18.20
2023-04-24T09:53:42.548Z,18.10
2023-04-24T09:56:11.066Z,18.00
2023-04-24T09:58:38.336Z,17.90
2023-04-24T10:01:06.125Z,17.80
2023-04-24T10:03:34.530Z,17.80
2023-04-24T10:06:03.014Z,17.80
2023-04-24T10:08:39.416Z,17.80
2023-04-24T10:11:07.329Z,17.70
2023-04-24T10:13:35.407Z,17.60
2023-04-24T10:16:04.998Z,17.60
2023-04-24T10:18:33.360Z,17.50
2023-04-24T10:21:01.337Z,17.40
2023-04-24T10:23:29.892Z,17.40
2023-04-24T10:25:57.095Z,17.50
2023-04-24T10:28:26.044Z,17.40
2023-04-24T10:30:56.283Z,17.40
2023-04-24T10:33:24.809Z,17.20
2023-04-24T10:35:52.771Z,17.30
2023-04-24T10:38:25.936Z,17.40
2023-04-24T10:41:07.554Z,17.50
2023-04-24T10:43:34.975Z,17.60
2023-04-24T10:46:04.336Z,17.60
2023-04-24T10:48:31.821Z,17.60
2023-04-24T10:50:59.045Z,17.60
2023-04-24T10:53:29.546Z,17.60
2023-04-24T10:56:14.507Z,17.50
2023-04-24T10:58:50.173Z,17.60
2023-04-24T11:01:31.096Z,17.70
2023-04-24T11:04:04.595Z,17.70
2023-04-24T11:06:37.048Z,17.80
2023-04-24T11:09:16.535Z,18.00
2023-04-24T11:11:46.903Z,18.20
2023-04-24T11:14:17.375Z,18.40
2023-04-24T11:17:03.024Z,18.40
2023-04-24T11:19:30.731Z,18.40
2023-04-24T11:22:03.175Z,18.30
2023-04-24T11:24:40.782Z,18.10
2023-04-24T11:27:15.291Z,18.00
2023-04-24T11:29:49.936Z,18.00
2023-04-24T11:32:31.593Z,17.90
2023-04-24T11:35:02.384Z,17.80
2023-04-24T11:37:36.136Z,17.60
2023-04-24T11:40:05.179Z,17.50
2023-04-24T11:42:40.032Z,17.40
2023-04-24T11:45:14.126Z,17.40
2023-04-24T11:47:41.940Z,17.50
2023-04-24T11:50:12.104Z,17.60
2023-04-24T11:52:41.479Z,17.50
2023-04-24T11:55:15.401Z,17.70
2023-04-24T11:57:51.165Z,17.90
2023-04-24T12:00:22.868Z,18.10
2023-04-24T12:02:51.256Z,18.30
2023-04-24T12:05:27.583Z,18.60
2023-04-24T12:07:55.840Z,18.90
2023-04-24T12:10:25.236Z,19.20
2023-04-24T12:12:53.059Z,19.30
2023-04-24T12:15:21.638Z,19.10
2023-04-24T12:17:51.517Z,19.10
2023-04-24T12:20:24.337Z,19.20
2023-04-24T12:22:56.186Z,19.20
2023-04-24T12:25:26.050Z,19.20
2023-04-24T12:27:55.896Z,19.00
2023-04-24T12:30:29.682Z,18.80
2023-04-24T12:32:59.365Z,18.80
2023-04-24T12:35:29.343Z,18.50
2023-04-24T12:37:56.405Z,18.20
2023-04-24T12:40:27.164Z,18.00
2023-04-24T12:42:55.633Z,17.90
2023-04-24T12:45:26.293Z,18.00
2023-04-24T12:47:53.412Z,18.00
2023-04-24T12:50:20.783Z,18.00
2023-04-24T12:52:47.887Z,17.90
2023-04-24T12:55:15.033Z,17.70
2023-04-24T12:57:42.163Z,17.70
2023-04-24T13:00:09.841Z,17.70
2023-04-24T13:02:37.482Z,17.70
2023-04-24T13:05:05.123Z,17.60
2023-04-24T13:07:32.293Z,17.40
2023-04-24T13:09:59.383Z,17.30
2023-04-24T13:12:27.602Z,17.40
2023-04-24T13:14:55.211Z,17.40
2023-04-24T13:17:23.004Z,17.30
2023-04-24T13:19:51.342Z,17.20
2023-04-24T13:22:21.988Z,17.10
2023-04-24T13:24:51.895Z,17.00
2023-04-24T13:27:19.314Z,17.10
2023-04-24T13:29:46.837Z,17.00
2023-04-24T13:32:14.465Z,16.90
2023-04-24T13:34:41.584Z,16.90
2023-04-24T13:37:09.161Z,16.80
2023-04-24T13:39:36.725Z,16.80
2023-04-24T13:42:05.158Z,16.70
2023-04-24T13:44:32.390Z,16.60
2023-04-24T13:47:00.148Z,16.60
2023-04-24T13:49:27.918Z,16.60
2023-04-24T13:51:56.771Z,16.50
2023-04-24T13:54:26.855Z,16.50
2023-04-24T13:56:54.485Z,16.50
2023-04-24T13:59:22.807Z,16.50
2023-04-24T14:01:50.205Z,16.50
2023-04-24T14:04:17.905Z,16.60
2023-04-24T14:06:45.542Z,16.50
2023-04-24T14:09:13.728Z,16.50
2023-04-24T14:11:41.683Z,16.40
2023-04-24T14:14:09.221Z,16.50
2023-04-24T14:16:36.570Z,16.60
2023-04-24T14:19:03.704Z,16.60
2023-04-24T14:21:31.511Z,16.40
2023-04-24T14:23:58.658Z,16.30
2023-04-24T14:26:26.028Z,16.20
2023-04-24T14:29:00.782Z,16.20
2023-04-24T14:31:34.763Z,16.20
2023-04-24T14:34:01.986Z,16.10
2023-04-24T14:36:29.114Z,16.10
2023-04-24T14:38:56.509Z,16.00
2023-04-24T14:41:23.586Z,16.00
2023-04-24T14:43:50.749Z,16.00
2023-04-24T14:46:18.108Z,16.00
2023-04-24T14:48:45.371Z,15.90
2023-04-24T14:51:12.641Z,15.70
2023-04-24T14:53:39.766Z,15.60
2023-04-24T14:56:07.265Z,15.60
2023-04-24T14:58:34.390Z,15.60
2023-04-24T15:01:01.554Z,15.60
2023-04-24T15:03:28.927Z,15.60
2023-04-24T15:05:56.534Z,15.60
2023-04-24T15:08:23.646Z,15.50
2023-04-24T15:10:50.832Z,15.50
2023-04-24T15:13:17.965Z,15.40
2023-04-24T15:15:46.944Z,15.40
2023-04-24T15:18:15.182Z,15.40
2023-04-24T15:20:44.892Z,15.50
2023-04-24T15:23:12.067Z,15.50
2023-04-24T15:25:39.454Z,15.60
2023-04-24T15:28:07.043Z,15.50
2023-04-24T15:30:34.524Z,15.50
2023-04-24T15:33:03.495Z,15.60
2023-04-24T15:35:30.789Z,15.50
2023-04-24T15:37:58.074Z,15.40
2023-04-24T15:40:25.291Z,15.40
2023-04-24T15:42:52.441Z,15.40
2023-04-24T15:45:19.734Z,15.40
2023-04-24T15:47:51.045Z,15.30
2023-04-24T15:50:19.496Z,15.20
2023-04-24T15:52:46.670Z,15.20
2023-04-24T15:55:13.793Z,15.20
2023-04-24T15:57:40.967Z,15.20
2023-04-24T16:00:09.917Z,15.10
2023-04-24T16:02:37.229Z,15.20
2023-04-24T16:05:04.782Z,15.20
2023-04-24T16:07:32.068Z,15.20
2023-04-24T16:09:59.213Z,15.20
2023-04-24T16:12:28.983Z,15.30
2023-04-24T16:14:56.262Z,15.30
2023-04-24T16:17:23.703Z,15.30
2023-04-24T16:19:50.790Z,15.40
2023-04-24T16:22:17.928Z,15.50
2023-04-24T16:24:47.161Z,15.50
2023-04-24T16:27:15.442Z,15.50
2023-04-24T16:29:42.677Z,15.50
2023-04-24T16:32:10.850Z,15.50
2023-04-24T16:34:38.206Z,15.50
2023-04-24T16:37:06.586Z,15.50
2023-04-24T16:39:34.558Z,15.50
2023-04-24T16:42:01.955Z,15.60
2023-04-24T16:44:29.183Z,15.60
2023-04-24T16:46:56.885Z,15.60
2023-04-24T16:49:24.124Z,15.60
2023-04-24T16:51:51.272Z,15.50
2023-04-24T16:54:18.326Z,15.50
2023-04-24T16:56:45.938Z,15.40
2023-04-24T16:59:13.099Z,15.40
2023-04-24T17:01:40.774Z,15.30
2023-04-24T17:04:08.066Z,15.30
2023-04-24T17:06:35.372Z,15.30
2023-04-24T17:09:03.844Z,15.30
2023-04-24T17:11:31.372Z,15.40
2023-04-24T17:14:01.936Z,15.40
2023-04-24T17:16:29.376Z,15.30
2023-04-24T17:18:56.569Z,15.20
2023-04-24T17:21:23.833Z,15.10
2023-04-24T17:23:50.991Z,14.80
2023-04-24T17:26:18.106Z,14.60
2023-04-24T17:28:45.437Z,14.40
2023-04-24T17:31:12.587Z,14.20
2023-04-24T17:33:39.727Z,14.10
2023-04-24T17:36:07.398Z,14.10
2023-04-24T17:38:34.536Z,13.90
2023-04-24T17:41:01.708Z,13.80
2023-04-24T17:43:28.864Z,13.60
2023-04-24T17:45:56.584Z,13.60
2023-04-24T17:48:23.937Z,13.50
2023-04-24T17:50:51.798Z,13.50
2023-04-24T17:53:19.590Z,13.30
2023-04-24T17:55:46.866Z,13.40
2023-04-24T17:58:14.491Z,13.40
2023-04-24T18:00:42.186Z,13.40
2023-04-24T18:03:09.862Z,13.50
2023-04-24T18:05:38.831Z,13.50
2023-04-24T18:08:06.192Z,13.50
2023-04-24T18:10:37.186Z,13.50
2023-04-24T18:13:05.443Z,13.50
2023-04-24T18:15:32.923Z,13.50
2023-04-24T18:18:00.175Z,13.40
2023-04-24T18:20:27.624Z,13.40
2023-04-24T18:22:54.935Z,13.50
2023-04-24T18:25:26.936Z,13.40
2023-04-24T18:27:55.924Z,13.40
2023-04-24T18:30:24.494Z,13.40
2023-04-24T18:32:53.633Z,13.40
2023-04-24T18:35:21.573Z,13.40
2023-04-24T18:37:49.233Z,13.40
2023-04-24T18:40:16.896Z,13.40
2023-04-24T18:42:44.773Z,13.40
2023-04-24T18:45:14.689Z,13.30
2023-04-24T18:47:43.773Z,13.30
2023-04-24T18:50:11.667Z,13.30
2023-04-24T18:52:38.763Z,13.30
2023-04-24T18:55:07.059Z,13.30
2023-04-24T18:57:34.552Z,13.20
2023-04-24T19:00:01.907Z,13.10
2023-04-24T19:02:29.239Z,13.20
2023-04-24T19:04:56.397Z,13.20
2023-04-24T19:07:23.544Z,13.20
2023-04-24T19:09:50.698Z,13.20
2023-04-24T19:12:17.989Z,13.20
2023-04-24T19:14:46.393Z,13.20
2023-04-24T19:17:14.070Z,13.20
2023-04-24T19:19:41.279Z,13.20
2023-04-24T19:22:08.388Z,13.30
2023-04-24T19:24:35.524Z,13.30
2023-04-24T19:27:02.624Z,13.30
2023-04-24T19:29:29.672Z,13.20
2023-04-24T19:31:58.705Z,13.20
2023-04-24T19:34:26.509Z,13.20
2023-04-24T19:36:53.772Z,13.00
2023-04-24T19:39:21.070Z,13.00
2023-04-24T19:41:48.229Z,13.00
2023-04-24T19:44:15.745Z,13.00
2023-04-24T19:46:43.653Z,13.00
2023-04-24T19:49:10.983Z,13.00
2023-04-24T19:51:38.660Z,13.10
2023-04-24T19:54:06.527Z,13.10
2023-04-24T19:56:34.743Z,13.10
2023-04-24T19:59:01.951Z,13.20
2023-04-24T20:01:29.177Z,13.20
2023-04-24T20:03:56.594Z,13.20
2023-04-24T20:06:23.883Z,13.20
2023-04-24T20:08:51.197Z,13.20
2023-04-24T20:11:18.558Z,13.30
2023-04-24T20:13:45.995Z,13.20
2023-04-24T20:16:13.231Z,13.20
2023-04-24T20:18:40.505Z,13.20
2023-04-24T20:21:09.298Z,13.20
2023-04-24T20:23:36.401Z,13.30
2023-04-24T20:26:04.990Z,13.30
2023-04-24T20:28:32.178Z,13.20
2023-04-24T20:30:59.596Z,13.20
2023-04-24T20:33:28.148Z,13.20
2023-04-24T20:35:55.730Z,13.20
2023-04-24T20:38:23.003Z,13.20
2023-04-24T20:40:57.807Z,13.20
2023-04-24T20:43:28.790Z,13.20
2023-04-24T20:46:00.265Z,13.20
2023-04-24T20:48:27.595Z,13.20
2023-04-24T20:50:56.017Z,13.20
2023-04-24T20:53:23.596Z,13.30
2023-04-24T20:55:51.108Z,13.30
2023-04-24T20:58:18.904Z,13.30
2023-04-24T21:00:46.996Z,13.20
2023-04-24T21:03:14.295Z,13.20
2023-04-24T21:05:41.534Z,13.20
2023-04-24T21:08:08.609Z,13.20
2023-04-24T21:10:35.933Z,13.20
2023-04-24T21:13:03.016Z,13.10
2023-04-24T21:15:30.892Z,13.20
2023-04-24T21:17:58.074Z,13.10
2023-04-24T21:20:25.380Z,13.20
2023-04-24T21:22:52.431Z,13.20
2023-04-24T21:25:19.537Z,13.20
2023-04-24T21:27:46.783Z,13.20
2023-04-24T21:30:14.037Z,13.20
2023-04-24T21:32:41.197Z,13.20
2023-04-24T21:35:08.711Z,13.00
2023-04-24T21:37:37.916Z,13.10
2023-04-24T21:40:05.747Z,13.00
2023-04-24T21:42:32.924Z,13.00
2023-04-24T21:45:00.026Z,13.00
2023-04-24T21:47:27.130Z,13.00
2023-04-24T21:49:54.287Z,13.00
2023-04-24T21:52:21.343Z,13.00
2023-04-24T21:54:48.395Z,13.00
2023-04-24T21:57:16.107Z,12.90
2023-04-24T21:59:43.621Z,12.90
2023-04-24T22:02:11.114Z,12.90
2023-04-24T22:04:38.354Z,12.90
2023-04-24T22:07:05.976Z,12.90
2023-04-24T22:09:33.079Z,12.90
2023-04-24T22:12:00.240Z,12.90
2023-04-24T22:14:27.309Z,12.90
2023-04-24T22:16:57.184Z,12.90
2023-04-24T22:19:26.414Z,12.90
2023-04-24T22:21:53.688Z,12.90
2023-04-24T22:24:20.922Z,12.90
2023-04-24T22:26:48.229Z,12.90
2023-04-24T22:29:15.486Z,12.90
2023-04-24T22:31:42.733Z,12.90
2023-04-24T22:34:10.317Z,12.90
2023-04-24T22:36:37.436Z,12.90
2023-04-24T22:39:05.532Z,12.90
2023-04-24T22:41:32.800Z,12.90
2023-04-24T22:44:00.047Z,12.90
2023-04-24T22:46:27.224Z,12.90
2023-04-24T22:48:54.341Z,12.80
2023-04-24T22:51:21.437Z,12.80
2023-04-24T22:53:49.739Z,12.80
2023-04-24T22:56:17.583Z,12.80
2023-04-24T22:58:44.654Z,12.80
2023-04-24T23:01:11.815Z,12.80
2023-04-24T23:03:39.289Z,12.70
2023-04-24T23:06:06.886Z,12.60
2023-04-24T23:08:33.975Z,12.60
2023-04-24T23:11:01.102Z,12.70
2023-04-24T23:13:28.275Z,12.60
2023-04-24T23:15:55.429Z,12.60
2023-04-24T23:18:22.517Z,12.60
2023-04-24T23:20:49.640Z,12.60
2023-04-24T23:23:16.773Z,12.60
2023-04-24T23:25:43.963Z,12.50
2023-04-24T23:28:11.140Z,12.50
2023-04-24T23:30:38.246Z,12.50
2023-04-24T23:33:05.554Z,12.50
2023-04-24T23:35:32.796Z,12.50
2023-04-24T23:37:59.902Z,12.50
2023-04-24T23:40:27.116Z,12.40
2023-04-24T23:43:05.530Z,12.40
2023-04-24T23:45:34.632Z,12.40
2023-04-24T23:48:02.005Z,12.40
2023-04-24T23:50:29.166Z,12.40
2023-04-24T23:52:56.607Z,12.30
2023-04-24T23:55:23.706Z,12.30
2023-04-24T23:57:50.863Z,12.30
